General José María Yáñez International Airport
MMGM : rendu visible

Aérodrome :











RETROUVEZ-NOUS SUR...

 
LOGIN :

S'inscrire | Disclaimer

   EN    FR    IT 

 









Légende :    VFR   VFR Marginal   IFR   IFR Intensif   IFR Très Intensif
Visi : 
Plafond : 
>= 8 km
>= 3000ft
5 à 8 km
1000 à 3000 ft
1500m à 5 km
500 à 1000 ft
800 à 1500m
200 à 500 ft
< 800m
< 200 ft
Symboles :   Orages  Brouillard  Fortes neiges  Fortes précipitations  Vent > 20 kt






- Altitude de l'aérodrome : 59 ft
- Code IATA : GYM


MMGM - General José María Yáñez International

DERNIER METAR :
  • 140051Z 00000KT 10SM SKC 25/13 A2990

METARs EXPIRÉS :
  • 132340Z 00000KT 10SM SKC 27/16 A2990
  • 132240Z 24008KT 10SM SKC 26/16 A2991
  • 132141Z 25011KT 10SM SKC 25/15 A2991

TAF TAF MMGM
Valide du 13 à 18h jusqu'au 14 à 18h UTC


131633Z 1318/1418 32015KT P6SM SKC
BECMG 1401/1402 00000KT
FM141500 29010KT P6SM SKC



MET'MAP, la Météo Aéronautique d'un coup d'oeil ! - Copyright ORBIFLY Décembre 2007 - Disclaimer

ORBIFLY MET'MAP TEAM :

Programmation & Développement : Alexandra Zaïnal
Sur une idée originale de : Baudouin d'Aumeries
Assistance à la programmation : Marc-Olivier Méhu
Soutien technique & logistique : Manuel Goepfert

Contact : metmap@orbifly.com




SOURCES & CREDITS :

   NOAA       Earth
Advisory